Terminal Aerodrome Forecast
Issued by NWS

Home | Current Version | Previous Version | Text Only | Print | Product List | Glossary On
Versions: 1 2 3 4 5 6 7 8 9 10 11 12 13 14 15 16 17 18
678
FTUS45 KFGZ 201720
TAFGCN
TAF
KGCN 201720Z 2018/2118 VRB05KT P6SM FEW080
     FM201900 23010KT P6SM SCT050 BKN080
      TEMPO 2019/2023 VRB10G20KT 6SM -TSRA BKN050CB
     FM210200 VRB05KT P6SM SCT100=

USA.gov is the U.S. government's official web portal to all federal, state and local government web resources and services.